Saturday, January 31, 2015
19:12 UTC
  |  Log In   |  Register Free
Airport Search:

Madison Municipal Airport
(KIMS)

Madison Municipal Airport Diagram
No Airport Diagram Available

FAA data valid effective January 08, 2015 - March 05, 2015 (unless otherwise noted).

 
 
 
 
 
 
 
 
 
 
 
 
 
 

Current Aviation Weather for Madison Municipal Airport (KIMS)

The most recent METAR observation for KIMS was updated at: 1811
METAR Summary (Translated METAR)
KIMS
311752Z AUTO 18005KT 10SM CLR 01/M06 A3035 RMK AO1
KJVY
030145Z 34005KT 10SM CLR 00/M11 A3027 RMK LAST
(26.9 nm SW from KIMS)
KLOU
311753Z 21005KT 10SM CLR 04/M07 A3037 RMK AO2 SLP288 T00391072 10044 21050 58013
(33.3 nm SW from KIMS)
TAF
No TAF information found within 50 nm of KLOU
  Airport Weather Conditions for KIMS

Current weather conditions are
not available for IMS


The nearest NOAA weather station
is at LOU, (33.3 nm SW from IMS)
  
 Current Weather at LOU
39° F
Fair
Southwest winds at 5.8 mph
LOU NOAA Radar

Pressure: 30.37 in
Humidity: 45%
Wind: Southwest at 5.8 MPH (5 KT)
Dew Point: 19.0°F
Visibility: 10.00 mi


Airport Weather Forecast for KIMS

Translated METAR and TAF for KLOU
Translated METAR for KLOU (1912 UTC 31 January 2015)
found at http://aviationweather.gov/adds/metars/
 
METAR text: KLOU 311853Z 20004KT 10SM CLR 05/M07 A3033 RMK AO2 SLP276 T00501072
Conditions at: KLOU (LOUISVILLE/BOWMN, KY, US) observed 1853 UTC 31 January 2015
Temperature: 5.0°C (41°F)
Dewpoint: -7.2°C (19°F) [RH = 41%]
Pressure (altimeter): 30.33 inches Hg (1027.2 mb)
[Sea-level pressure: 1027.6 mb]
Winds: from the SSW (200 degrees) at 5 MPH (4 knots; 2.1 m/s)
Visibility: 10 or more miles (16+ km)
Ceiling: at least 12,000 feet AGL
Clouds: sky clear below 12,000 feet AGL
Weather: no significant weather observed at this time
Translated TAF for KLOU

There is no translated TAF available for this airport

Find All Airport Services Find A Hotel Find A Rental Car Find A Golf Course Find A Restaurant $100 Hamburger



FBO's on the Field
FBO Company Facility Photos Services Transportation Aviation Fuel Prices: Prices include tax
Catering Weather Repair Courtesy Rental Type 100LL JetA JetA+ MOGAS 8087
 
City of Madison

Currently rated 4.8 by 1 person
FS:Phillips 66
Last Updated: Jan-22
Login to update fuel prices
SS:
Contact City of MadisonMore FBO Information
 
Add another FBO Facility Photos Catering Weather Repair Courtesy Rental Type 100LL JetA JetA+ MOGAS 8087
Services Transportation Aviation Fuel Prices: Prices include tax


model-print
model-print
model-print
model-print